Time;durP1;ratioP1;P1;durP2;ratioP2;P2;SDS_P1;SDS_P2;PMS_P1;PMS_P2;Temp;Humidity;BMP_temperature;BMP_pressure;BME280_temperature;BME280_humidity;BME280_pressure;Samples;Min_cycle;Max_cycle;Signal;HPM_P1;HPM_P2
2022/10/26 00:00:28;;;;;;;;;;;15.70;65.10;;;;;;5005045;28;87399;-37
2022/10/26 00:02:54;;;;;;;;;;;15.70;65.20;;;;;;5004575;28;88085;-37
2022/10/26 00:05:20;;;;;;;;;;;15.70;65.20;;;;;;5004952;28;86987;-38
2022/10/26 00:07:46;;;;;;;;;;;15.70;65.20;;;;;;5004970;28;87059;-38
2022/10/26 00:10:12;;;;;;;;;;;15.60;65.10;;;;;;5004281;28;88002;-38
2022/10/26 00:12:37;;;;;;;;;;;15.70;65.20;;;;;;5004670;28;86305;-38
2022/10/26 00:15:03;;;;;;;;;;;15.60;65.10;;;;;;5007262;28;86835;-37
2022/10/26 00:17:28;;;;;;;;;;;15.70;65.10;;;;;;5004574;28;87091;-37
2022/10/26 00:19:54;;;;;;;;;;;15.60;65.10;;;;;;5003823;28;87899;-38
2022/10/26 00:22:19;;;;;;;;;;;15.60;65.10;;;;;;5004248;28;88126;-38
2022/10/26 00:24:45;;;;;;;;;;;15.60;65.00;;;;;;5004563;28;87141;-37
2022/10/26 00:27:10;;;;;;;;;;;15.60;65.10;;;;;;5004262;28;87261;-38
2022/10/26 00:29:36;;;;;;;;;;;15.60;65.00;;;;;;5003943;28;88221;-38
2022/10/26 00:32:01;;;;;;;;;;;15.60;65.00;;;;;;5004421;28;86833;-38
2022/10/26 00:34:27;;;;;;;;;;;15.60;65.10;;;;;;5004486;28;86894;-37
2022/10/26 00:36:52;;;;;;;;;;;15.60;65.00;;;;;;5007342;28;87329;-38
2022/10/26 00:39:18;;;;;;;;;;;15.60;65.00;;;;;;5003602;28;87068;-38
2022/10/26 00:41:43;;;;;;;;;;;15.60;65.10;;;;;;5003838;28;88111;-38
2022/10/26 00:44:27;;;;;;;;;;;15.50;65.00;;;;;;5003510;28;88046;-38
2022/10/26 00:46:53;;;;;;;;;;;15.50;65.00;;;;;;5004310;28;88286;-38
2022/10/26 00:49:19;;;;;;;;;;;15.50;65.00;;;;;;5003877;28;87245;-37
2022/10/26 00:51:48;;;;;;;;;;;15.50;65.00;;;;;;5004159;28;87055;-37
2022/10/26 00:54:19;;;;;;;;;;;15.50;64.90;;;;;;5003867;28;87711;-38
2022/10/26 00:56:45;;;;;;;;;;;15.50;64.90;;;;;;5003723;28;88120;-38
2022/10/26 00:59:11;;;;;;;;;;;15.50;65.00;;;;;;5007097;28;88017;-38
2022/10/26 01:01:39;;;;;;;;;;;15.50;65.00;;;;;;5004249;28;87374;-38
2022/10/26 01:04:05;;;;;;;;;;;15.50;65.00;;;;;;5003834;28;87037;-38
2022/10/26 01:06:32;;;;;;;;;;;15.50;65.00;;;;;;5003978;28;87796;-37
2022/10/26 01:08:57;;;;;;;;;;;15.50;65.00;;;;;;5002383;28;88885;-37
2022/10/26 01:11:23;;;;;;;;;;;15.50;65.00;;;;;;5003160;28;87156;-38
2022/10/26 01:13:50;;;;;;;;;;;15.40;65.00;;;;;;5003918;28;87612;-37
2022/10/26 01:16:15;;;;;;;;;;;15.40;64.90;;;;;;5003161;28;88248;-37
2022/10/26 01:18:53;;;;;;;;;;;15.40;65.00;;;;;;5006614;28;87098;-37
2022/10/26 01:21:37;;;;;;;;;;;15.40;64.80;;;;;;5003416;28;87028;-38
2022/10/26 01:24:05;;;;;;;;;;;15.40;64.90;;;;;;5003578;28;87047;-37
2022/10/26 01:26:37;;;;;;;;;;;15.40;64.90;;;;;;5003882;28;87358;-37
2022/10/26 01:29:05;;;;;;;;;;;15.40;64.90;;;;;;5003228;28;88614;-38
2022/10/26 01:31:39;;;;;;;;;;;15.40;64.90;;;;;;5003610;28;87011;-37
2022/10/26 01:34:07;;;;;;;;;;;15.40;64.90;;;;;;5002872;28;87819;-38
2022/10/26 01:36:39;;;;;;;;;;;15.30;64.80;;;;;;5002917;28;88223;-37
2022/10/26 01:39:09;;;;;;;;;;;15.40;64.90;;;;;;5003449;28;86961;-37
2022/10/26 01:41:38;;;;;;;;;;;15.40;64.90;;;;;;5005602;28;87585;-38
2022/10/26 01:44:05;;;;;;;;;;;15.30;64.90;;;;;;5003295;28;86922;-38
2022/10/26 01:46:33;;;;;;;;;;;15.30;64.90;;;;;;5003254;28;87275;-38
2022/10/26 01:49:01;;;;;;;;;;;15.30;64.90;;;;;;5002694;28;87968;-38
2022/10/26 01:51:27;;;;;;;;;;;15.30;65.00;;;;;;5002582;28;86159;-37
2022/10/26 01:53:53;;;;;;;;;;;15.30;64.90;;;;;;5003283;28;86937;-37
2022/10/26 01:56:21;;;;;;;;;;;15.30;64.90;;;;;;5002450;28;87711;-37
2022/10/26 01:59:05;;;;;;;;;;;15.30;64.90;;;;;;5002368;28;87942;-37
2022/10/26 02:01:50;;;;;;;;;;;15.30;64.90;;;;;;5002790;28;88522;-38
2022/10/26 02:04:16;;;;;;;;;;;15.20;64.90;;;;;;5005330;28;88017;-37
2022/10/26 02:06:41;;;;;;;;;;;15.30;64.80;;;;;;5002876;28;87631;-38
2022/10/26 02:09:25;;;;;;;;;;;15.20;64.90;;;;;;5002380;28;87219;-38
2022/10/26 02:11:51;;;;;;;;;;;15.30;64.90;;;;;;5002796;28;87989;-38
2022/10/26 02:14:21;;;;;;;;;;;15.20;65.40;;;;;;5002889;28;87466;-37
2022/10/26 02:16:57;;;;;;;;;;;15.20;64.80;;;;;;5002852;28;87772;-38
2022/10/26 02:19:36;;;;;;;;;;;15.20;64.90;;;;;;5002686;28;87077;-37
2022/10/26 02:22:04;;;;;;;;;;;15.20;64.90;;;;;;5002690;28;87645;-37
2022/10/26 02:24:30;;;;;;;;;;;15.20;65.50;;;;;;5001659;28;88030;-38
2022/10/26 02:26:57;;;;;;;;;;;15.20;64.90;;;;;;5005403;28;87104;-38
2022/10/26 02:29:23;;;;;;;;;;;15.10;64.90;;;;;;5002471;28;87255;-38
2022/10/26 02:31:49;;;;;;;;;;;15.10;64.80;;;;;;5002659;28;87143;-37
2022/10/26 02:34:17;;;;;;;;;;;15.10;64.90;;;;;;5002789;28;87475;-38
2022/10/26 02:36:43;;;;;;;;;;;15.10;64.90;;;;;;5001984;28;88277;-37
2022/10/26 02:39:10;;;;;;;;;;;15.10;64.80;;;;;;5002440;28;87072;-37
2022/10/26 02:41:37;;;;;;;;;;;15.10;64.80;;;;;;5003059;28;87289;-37
2022/10/26 02:44:23;;;;;;;;;;;15.10;64.80;;;;;;5002224;28;88124;-38
2022/10/26 02:46:49;;;;;;;;;;;15.10;64.80;;;;;;5002036;28;87225;-37
2022/10/26 02:49:14;;;;;;;;;;;15.10;64.80;;;;;;5004477;28;87948;-37
2022/10/26 02:51:49;;;;;;;;;;;15.10;64.80;;;;;;5002187;28;87079;-38
2022/10/26 02:54:27;;;;;;;;;;;15.00;64.80;;;;;;5002460;28;87111;-37
2022/10/26 02:56:59;;;;;;;;;;;15.00;64.80;;;;;;5001636;28;88275;-37
2022/10/26 02:59:26;;;;;;;;;;;15.00;64.80;;;;;;5002292;28;87076;-37
2022/10/26 03:01:52;;;;;;;;;;;15.00;64.80;;;;;;5001804;28;87721;-37
2022/10/26 03:04:17;;;;;;;;;;;15.00;64.80;;;;;;5005509;28;87867;-37
2022/10/26 03:06:52;;;;;;;;;;;15.00;64.80;;;;;;5006163;28;86473;-38
2022/10/26 03:09:18;;;;;;;;;;;15.00;64.80;;;;;;5005809;28;87616;-38
2022/10/26 03:11:43;;;;;;;;;;;14.90;64.70;;;;;;5007706;28;88184;-37
2022/10/26 03:14:09;;;;;;;;;;;15.00;64.80;;;;;;5005031;28;87907;-37
2022/10/26 03:16:34;;;;;;;;;;;14.90;64.70;;;;;;5005006;28;88155;-38
2022/10/26 03:19:00;;;;;;;;;;;14.90;64.70;;;;;;5005687;28;87103;-37
2022/10/26 03:21:27;;;;;;;;;;;14.90;64.70;;;;;;5005579;28;87029;-38
2022/10/26 03:23:53;;;;;;;;;;;14.90;64.70;;;;;;5005121;28;88036;-38
2022/10/26 03:26:18;;;;;;;;;;;14.90;64.70;;;;;;5005461;28;87141;-37
2022/10/26 03:28:44;;;;;;;;;;;14.90;64.70;;;;;;5005503;28;87531;-37
2022/10/26 03:31:09;;;;;;;;;;;14.90;64.80;;;;;;5008274;28;87353;-37
2022/10/26 03:33:35;;;;;;;;;;;14.90;64.70;;;;;;5003902;28;89935;-37
2022/10/26 03:36:00;;;;;;;;;;;14.80;64.80;;;;;;5004886;28;88013;-38
2022/10/26 03:38:26;;;;;;;;;;;14.80;64.80;;;;;;5004881;28;89477;-38
2022/10/26 03:40:51;;;;;;;;;;;14.80;64.70;;;;;;5005341;28;87408;-38
2022/10/26 03:43:17;;;;;;;;;;;14.80;64.70;;;;;;5004977;28;88309;-38
2022/10/26 03:45:43;;;;;;;;;;;14.80;64.70;;;;;;5004861;28;87062;-38
2022/10/26 03:48:08;;;;;;;;;;;14.80;64.70;;;;;;5005302;28;87073;-37
2022/10/26 03:50:34;;;;;;;;;;;14.80;64.70;;;;;;5004737;28;88028;-37
2022/10/26 03:52:59;;;;;;;;;;;14.80;64.70;;;;;;5008117;28;87260;-38
2022/10/26 03:55:25;;;;;;;;;;;14.80;64.80;;;;;;5005210;28;86541;-37
2022/10/26 03:57:50;;;;;;;;;;;14.70;64.70;;;;;;5004909;28;87084;-37
2022/10/26 04:00:16;;;;;;;;;;;14.70;64.80;;;;;;5004911;28;87492;-38
2022/10/26 04:02:42;;;;;;;;;;;14.70;64.80;;;;;;5003814;28;88911;-38
2022/10/26 04:05:08;;;;;;;;;;;14.70;64.90;;;;;;5004955;28;87096;-38
2022/10/26 04:07:33;;;;;;;;;;;14.70;64.80;;;;;;5004887;28;87532;-37
2022/10/26 04:09:59;;;;;;;;;;;14.70;64.80;;;;;;5004299;28;88215;-38
2022/10/26 04:12:24;;;;;;;;;;;14.70;64.80;;;;;;5004409;28;87152;-38
2022/10/26 04:14:50;;;;;;;;;;;14.60;64.80;;;;;;5006449;28;87392;-37
2022/10/26 04:17:15;;;;;;;;;;;14.60;64.80;;;;;;5004339;28;87101;-37
2022/10/26 04:19:41;;;;;;;;;;;14.60;64.80;;;;;;5005297;28;87478;-37
2022/10/26 04:22:06;;;;;;;;;;;14.60;64.80;;;;;;5004285;28;87925;-37
2022/10/26 04:24:32;;;;;;;;;;;14.60;64.90;;;;;;5004567;28;87051;-37
2022/10/26 04:26:57;;;;;;;;;;;14.60;64.80;;;;;;5003663;28;88146;-37
2022/10/26 04:29:23;;;;;;;;;;;14.50;64.80;;;;;;5004366;28;88097;-37
2022/10/26 04:31:48;;;;;;;;;;;14.60;64.90;;;;;;5004230;28;87210;-37
2022/10/26 04:34:14;;;;;;;;;;;14.50;64.80;;;;;;5004317;28;86971;-37
2022/10/26 04:36:40;;;;;;;;;;;14.50;64.80;;;;;;5006820;28;87884;-37
2022/10/26 04:39:05;;;;;;;;;;;14.50;64.80;;;;;;5004450;28;87437;-38
2022/10/26 04:41:30;;;;;;;;;;;14.50;64.80;;;;;;5003874;28;88007;-37
2022/10/26 04:43:56;;;;;;;;;;;14.50;64.80;;;;;;5004587;28;86347;-37
2022/10/26 04:46:21;;;;;;;;;;;14.50;64.80;;;;;;5004360;28;87262;-37
2022/10/26 04:48:47;;;;;;;;;;;14.50;64.80;;;;;;5003761;28;88033;-37
2022/10/26 04:51:13;;;;;;;;;;;14.50;64.80;;;;;;5003462;28;88241;-38
2022/10/26 04:53:38;;;;;;;;;;;14.50;64.80;;;;;;5004195;28;88333;-38
2022/10/26 04:56:04;;;;;;;;;;;14.40;64.80;;;;;;5003549;28;87973;-37
2022/10/26 04:58:29;;;;;;;;;;;14.40;64.80;;;;;;5006955;28;87129;-37
2022/10/26 05:00:55;;;;;;;;;;;14.40;64.80;;;;;;5003767;28;88116;-37
2022/10/26 05:03:21;;;;;;;;;;;14.40;64.80;;;;;;5003841;28;87146;-37
2022/10/26 05:05:46;;;;;;;;;;;14.40;64.80;;;;;;5003983;28;87289;-37
2022/10/26 05:08:12;;;;;;;;;;;14.40;64.80;;;;;;5004065;28;87008;-37
2022/10/26 05:10:38;;;;;;;;;;;14.40;64.80;;;;;;5003747;28;87023;-38
2022/10/26 05:13:04;;;;;;;;;;;14.40;64.80;;;;;;5003502;28;87447;-38
2022/10/26 05:15:29;;;;;;;;;;;14.40;64.80;;;;;;5002863;28;88982;-37
2022/10/26 05:17:56;;;;;;;;;;;14.30;64.80;;;;;;5003626;28;87110;-37
2022/10/26 05:20:27;;;;;;;;;;;14.40;64.80;;;;;;5006240;28;87355;-37
2022/10/26 05:22:53;;;;;;;;;;;14.30;64.70;;;;;;5003787;28;86935;-37
2022/10/26 05:25:19;;;;;;;;;;;14.30;64.70;;;;;;5003662;28;86957;-38
2022/10/26 05:27:44;;;;;;;;;;;14.30;64.70;;;;;;5002954;28;87945;-38
2022/10/26 05:30:10;;;;;;;;;;;14.30;64.70;;;;;;5003630;28;87097;-38
2022/10/26 05:32:35;;;;;;;;;;;14.30;64.80;;;;;;5003767;28;87595;-37
2022/10/26 05:35:01;;;;;;;;;;;14.30;64.70;;;;;;5003019;28;88093;-37
2022/10/26 05:37:29;;;;;;;;;;;14.30;64.70;;;;;;5003375;28;87119;-38
2022/10/26 05:39:55;;;;;;;;;;;14.20;64.70;;;;;;5005587;28;87975;-38
2022/10/26 05:42:20;;;;;;;;;;;14.30;64.70;;;;;;5003533;28;87125;-37
2022/10/26 05:44:46;;;;;;;;;;;14.30;64.80;;;;;;5003162;28;87485;-37
2022/10/26 05:47:11;;;;;;;;;;;14.20;64.60;;;;;;5002878;28;88156;-37
2022/10/26 05:49:37;;;;;;;;;;;14.20;64.70;;;;;;5003193;28;87120;-37
2022/10/26 05:52:02;;;;;;;;;;;14.20;64.70;;;;;;5003294;28;86916;-37
2022/10/26 05:54:28;;;;;;;;;;;14.20;64.70;;;;;;5002867;28;88069;-38
2022/10/26 05:56:54;;;;;;;;;;;14.20;64.70;;;;;;5003564;28;86364;-37
2022/10/26 05:59:19;;;;;;;;;;;14.20;64.60;;;;;;5003197;28;86923;-38
2022/10/26 06:01:56;;;;;;;;;;;14.20;64.60;;;;;;5005462;28;87979;-37
2022/10/26 06:04:24;;;;;;;;;;;14.20;64.60;;;;;;5002106;28;88581;-37
2022/10/26 06:06:52;;;;;;;;;;;14.20;65.30;;;;;;5002636;28;87991;-38
2022/10/26 06:09:18;;;;;;;;;;;14.20;64.70;;;;;;5002848;28;87109;-37
2022/10/26 06:11:44;;;;;;;;;;;14.20;64.70;;;;;;5002470;28;87061;-37
2022/10/26 06:14:09;;;;;;;;;;;14.20;64.60;;;;;;5002628;28;87908;-38
2022/10/26 06:16:45;;;;;;;;;;;14.20;64.70;;;;;;5002328;28;87288;-37
2022/10/26 06:19:13;;;;;;;;;;;14.20;64.60;;;;;;5003015;28;87581;-38
2022/10/26 06:21:44;;;;;;;;;;;14.10;64.60;;;;;;5003139;28;86706;-38
2022/10/26 06:24:12;;;;;;;;;;;14.20;64.60;;;;;;5005621;28;87036;-38
2022/10/26 06:26:44;;;;;;;;;;;14.10;64.60;;;;;;5002247;28;88156;-38
2022/10/26 06:29:21;;;;;;;;;;;14.10;64.60;;;;;;5001800;28;88065;-38
2022/10/26 06:31:47;;;;;;;;;;;14.10;64.70;;;;;;5002534;28;88496;-38
2022/10/26 06:34:17;;;;;;;;;;;14.10;64.70;;;;;;5002324;28;87763;-38
2022/10/26 06:36:43;;;;;;;;;;;14.10;64.60;;;;;;5002199;28;86870;-37
2022/10/26 06:39:10;;;;;;;;;;;14.10;64.70;;;;;;5002463;28;87543;-38
2022/10/26 06:41:36;;;;;;;;;;;14.10;64.70;;;;;;5001923;28;88115;-37
2022/10/26 06:44:02;;;;;;;;;;;14.10;64.70;;;;;;5002745;28;86933;-37
2022/10/26 06:46:57;;;;;;;;;;;14.10;64.70;;;;;;5005310;28;90017;-37
2022/10/26 06:49:22;;;;;;;;;;;14.10;64.70;;;;;;5000844;28;87046;-37
2022/10/26 06:51:48;;;;;;;;;;;14.10;64.70;;;;;;5002525;28;87378;-37
2022/10/26 06:54:25;;;;;;;;;;;14.10;64.80;;;;;;5001353;28;89413;-37
2022/10/26 06:56:52;;;;;;;;;;;14.10;64.80;;;;;;5002239;28;87060;-37
2022/10/26 06:59:24;;;;;;;;;;;14.10;64.80;;;;;;5002217;28;87434;-37
2022/10/26 07:01:49;;;;;;;;;;;14.10;64.80;;;;;;5002156;28;87320;-38
2022/10/26 07:04:15;;;;;;;;;;;14.10;64.80;;;;;;5002250;28;87072;-37
2022/10/26 07:06:40;;;;;;;;;;;14.10;64.90;;;;;;5002089;28;87453;-37
2022/10/26 07:09:06;;;;;;;;;;;14.10;64.90;;;;;;5004789;28;87777;-38
2022/10/26 07:11:31;;;;;;;;;;;14.10;64.90;;;;;;5002345;28;87570;-37
2022/10/26 07:13:57;;;;;;;;;;;14.10;64.90;;;;;;5001930;28;87889;-38
2022/10/26 07:16:22;;;;;;;;;;;14.00;64.80;;;;;;5002021;28;87199;-37
2022/10/26 07:18:48;;;;;;;;;;;14.10;64.80;;;;;;5001493;28;87845;-38
2022/10/26 07:21:13;;;;;;;;;;;14.10;64.90;;;;;;5001711;28;87056;-38
2022/10/26 07:23:39;;;;;;;;;;;14.10;64.90;;;;;;5001942;28;87135;-38
2022/10/26 07:26:04;;;;;;;;;;;14.10;65.00;;;;;;5002180;28;87345;-37
2022/10/26 07:28:30;;;;;;;;;;;14.10;65.00;;;;;;5001341;28;88142;-38
2022/10/26 07:30:57;;;;;;;;;;;14.10;65.00;;;;;;5004822;28;86974;-38
2022/10/26 07:33:22;;;;;;;;;;;14.10;65.00;;;;;;5001342;28;87576;-37
2022/10/26 07:35:48;;;;;;;;;;;14.10;65.10;;;;;;5001954;28;86351;-37
2022/10/26 07:38:13;;;;;;;;;;;14.10;65.10;;;;;;5001844;28;86956;-38
2022/10/26 07:40:39;;;;;;;;;;;14.00;65.10;;;;;;5001494;28;87271;-38
2022/10/26 07:43:04;;;;;;;;;;;14.10;65.30;;;;;;5001208;28;88053;-37
2022/10/26 07:45:30;;;;;;;;;;;14.10;65.40;;;;;;5001869;28;87765;-37
2022/10/26 07:47:56;;;;;;;;;;;14.10;65.30;;;;;;5001484;28;88007;-38
2022/10/26 07:50:21;;;;;;;;;;;14.10;65.50;;;;;;5006636;28;87383;-38
2022/10/26 07:52:47;;;;;;;;;;;14.10;65.40;;;;;;5004998;28;88504;-38
2022/10/26 07:55:13;;;;;;;;;;;14.10;65.50;;;;;;5005024;28;87225;-38
2022/10/26 07:57:38;;;;;;;;;;;14.10;65.50;;;;;;5004917;28;87303;-38
2022/10/26 08:00:05;;;;;;;;;;;14.10;65.50;;;;;;5005325;28;87219;-38
2022/10/26 08:02:30;;;;;;;;;;;14.10;65.50;;;;;;5004627;28;87112;-37
2022/10/26 08:04:56;;;;;;;;;;;14.10;65.50;;;;;;5004822;28;87465;-37
2022/10/26 08:07:21;;;;;;;;;;;14.10;65.40;;;;;;5003591;28;89116;-37
2022/10/26 08:09:47;;;;;;;;;;;14.10;65.50;;;;;;5004958;28;87113;-37
2022/10/26 08:12:15;;;;;;;;;;;14.10;65.50;;;;;;5006758;28;87594;-38
2022/10/26 08:14:41;;;;;;;;;;;14.10;65.50;;;;;;5004695;28;87024;-38
2022/10/26 08:17:06;;;;;;;;;;;14.10;65.50;;;;;;5004967;28;87449;-37
2022/10/26 08:19:32;;;;;;;;;;;14.10;66.10;;;;;;5004219;28;87083;-38
2022/10/26 08:21:57;;;;;;;;;;;14.10;65.50;;;;;;5004374;28;87480;-38
2022/10/26 08:24:23;;;;;;;;;;;14.10;65.50;;;;;;5005150;28;87381;-38
2022/10/26 08:26:48;;;;;;;;;;;14.10;65.50;;;;;;5002429;28;89769;-38
2022/10/26 08:29:14;;;;;;;;;;;14.10;65.60;;;;;;5004483;28;87704;-38
2022/10/26 08:31:39;;;;;;;;;;;14.10;65.70;;;;;;5003930;28;89106;-38
2022/10/26 08:34:05;;;;;;;;;;;14.10;65.60;;;;;;5007170;28;87376;-38
2022/10/26 08:36:30;;;;;;;;;;;14.10;65.50;;;;;;5004043;28;87253;-38
2022/10/26 08:38:56;;;;;;;;;;;14.10;66.20;;;;;;5003984;28;87701;-38
2022/10/26 08:41:28;;;;;;;;;;;14.10;65.60;;;;;;5004460;28;87438;-38
2022/10/26 08:43:57;;;;;;;;;;;14.10;65.60;;;;;;5004332;28;87514;-37
2022/10/26 08:46:34;;;;;;;;;;;14.10;65.60;;;;;;5003673;28;87140;-38
2022/10/26 08:49:02;;;;;;;;;;;14.10;65.60;;;;;;5004715;28;86144;-37
2022/10/26 08:51:34;;;;;;;;;;;14.10;65.70;;;;;;5003924;28;87033;-37
2022/10/26 08:54:02;;;;;;;;;;;14.10;65.70;;;;;;5003573;28;87953;-37
2022/10/26 08:56:34;;;;;;;;;;;14.10;65.60;;;;;;5006125;28;88005;-37
2022/10/26 08:59:13;;;;;;;;;;;14.10;65.70;;;;;;5003726;28;87925;-38
2022/10/26 09:01:38;;;;;;;;;;;14.10;65.70;;;;;;5003297;28;87120;-38
2022/10/26 09:04:08;;;;;;;;;;;14.10;65.70;;;;;;5004151;28;86982;-38
2022/10/26 09:06:34;;;;;;;;;;;14.10;65.80;;;;;;5003320;28;87999;-37
2022/10/26 09:09:07;;;;;;;;;;;14.10;65.80;;;;;;5003904;28;87064;-38
2022/10/26 09:11:39;;;;;;;;;;;14.10;65.80;;;;;;5003314;28;87399;-37
2022/10/26 09:14:04;;;;;;;;;;;14.10;65.80;;;;;;5003647;28;87283;-37
2022/10/26 09:16:34;;;;;;;;;;;14.10;65.70;;;;;;5003658;28;87060;-37
2022/10/26 09:19:18;;;;;;;;;;;14.10;65.70;;;;;;5006118;28;87453;-38
2022/10/26 09:21:50;;;;;;;;;;;14.20;65.70;;;;;;5003094;28;88087;-37
2022/10/26 09:24:30;;;;;;;;;;;14.20;65.70;;;;;;5003398;28;88363;-37
2022/10/26 09:27:08;;;;;;;;;;;14.20;65.70;;;;;;5003094;28;87109;-38
2022/10/26 09:29:37;;;;;;;;;;;14.20;65.60;;;;;;5003682;28;87039;-37
2022/10/26 09:32:04;;;;;;;;;;;14.20;65.60;;;;;;5003178;28;88092;-37
2022/10/26 09:34:41;;;;;;;;;;;14.20;65.50;;;;;;5003042;28;88150;-38
2022/10/26 09:37:22;;;;;;;;;;;14.20;65.50;;;;;;5003187;28;87105;-37
2022/10/26 09:39:55;;;;;;;;;;;14.20;65.60;;;;;;5006421;28;87406;-37
2022/10/26 09:42:28;;;;;;;;;;;14.20;65.60;;;;;;5003269;28;87091;-37
2022/10/26 09:44:56;;;;;;;;;;;14.20;65.60;;;;;;5003567;28;87490;-38
2022/10/26 09:47:36;;;;;;;;;;;14.30;65.70;;;;;;5002255;28;88969;-37
2022/10/26 09:50:19;;;;;;;;;;;14.30;65.50;;;;;;5003187;28;87174;-38
2022/10/26 09:52:45;;;;;;;;;;;14.30;65.50;;;;;;5003253;28;87459;-37
2022/10/26 09:55:11;;;;;;;;;;;14.30;65.50;;;;;;5002953;28;88074;-37
2022/10/26 09:57:38;;;;;;;;;;;14.30;65.50;;;;;;5003040;28;87172;-37
2022/10/26 10:00:04;;;;;;;;;;;14.30;65.60;;;;;;5002700;28;86958;-37
2022/10/26 10:02:42;;;;;;;;;;;14.30;65.60;;;;;;5005427;28;88237;-37
2022/10/26 10:05:26;;;;;;;;;;;14.30;65.50;;;;;;5003355;28;87448;-38
2022/10/26 10:08:08;;;;;;;;;;;14.40;65.50;;;;;;5002662;28;87732;-37
2022/10/26 10:10:34;;;;;;;;;;;14.40;65.50;;;;;;5002934;28;87005;-38
2022/10/26 10:13:13;;;;;;;;;;;14.30;65.50;;;;;;5001096;28;87982;-37
2022/10/26 10:15:38;;;;;;;;;;;14.40;65.60;;;;;;5002615;28;88358;-37
2022/10/26 10:18:04;;;;;;;;;;;14.40;65.60;;;;;;5002879;28;87093;-37
2022/10/26 10:20:30;;;;;;;;;;;14.40;65.60;;;;;;5002812;28;87490;-38
2022/10/26 10:23:00;;;;;;;;;;;14.40;65.60;;;;;;5002569;28;87941;-37
2022/10/26 10:25:35;;;;;;;;;;;14.40;65.60;;;;;;5005656;28;87094;-37
2022/10/26 10:28:02;;;;;;;;;;;14.50;65.70;;;;;;5002479;28;87902;-37
2022/10/26 10:30:29;;;;;;;;;;;14.50;65.70;;;;;;5003172;28;86268;-37
2022/10/26 10:33:09;;;;;;;;;;;14.40;65.70;;;;;;5002744;28;86931;-37
2022/10/26 10:35:35;;;;;;;;;;;14.50;65.80;;;;;;5002174;28;87184;-38
2022/10/26 10:38:01;;;;;;;;;;;14.50;65.80;;;;;;5002039;28;88027;-38
2022/10/26 10:40:30;;;;;;;;;;;14.50;65.80;;;;;;5002717;28;87047;-37
2022/10/26 10:43:21;;;;;;;;;;;14.50;66.00;;;;;;5002089;28;87962;-38
2022/10/26 10:45:49;;;;;;;;;;;14.50;66.00;;;;;;5002024;28;86948;-38
2022/10/26 10:48:16;;;;;;;;;;;14.50;66.10;;;;;;5004700;28;87362;-37
2022/10/26 10:50:53;;;;;;;;;;;14.60;66.10;;;;;;5002537;28;86986;-38
2022/10/26 10:53:23;;;;;;;;;;;14.60;66.10;;;;;;5002383;28;87254;-38
2022/10/26 10:55:58;;;;;;;;;;;14.60;66.20;;;;;;5002639;28;87186;-38
2022/10/26 10:58:44;;;;;;;;;;;14.60;66.40;;;;;;5002293;28;87070;-38
2022/10/26 11:01:12;;;;;;;;;;;14.60;66.20;;;;;;5000276;28;87515;-38
2022/10/26 11:03:52;;;;;;;;;;;14.60;66.30;;;;;;5001331;28;88223;-38
2022/10/26 11:06:20;;;;;;;;;;;14.60;66.20;;;;;;5002403;28;86909;-38
2022/10/26 11:08:54;;;;;;;;;;;14.60;66.20;;;;;;5002256;28;86933;-38
2022/10/26 11:11:30;;;;;;;;;;;14.70;66.30;;;;;;5004367;28;87989;-38
2022/10/26 11:13:56;;;;;;;;;;;14.60;66.30;;;;;;5002196;28;87355;-37
2022/10/26 11:16:24;;;;;;;;;;;14.70;66.40;;;;;;5001893;28;88321;-38
2022/10/26 11:19:10;;;;;;;;;;;14.70;66.50;;;;;;5002048;28;87093;-38
2022/10/26 11:21:39;;;;;;;;;;;14.70;66.40;;;;;;5001683;28;87399;-37
2022/10/26 11:24:22;;;;;;;;;;;14.70;66.40;;;;;;5003187;28;88142;-38
2022/10/26 11:26:54;;;;;;;;;;;14.70;66.50;;;;;;5005417;28;87212;-38
2022/10/26 11:29:46;;;;;;;;;;;14.70;66.50;;;;;;5005078;28;88060;-38
2022/10/26 11:32:18;;;;;;;;;;;14.70;66.60;;;;;;5003973;28;88219;-38
2022/10/26 11:34:57;;;;;;;;;;;14.80;66.60;;;;;;5008266;28;87072;-37
2022/10/26 11:37:28;;;;;;;;;;;14.80;66.50;;;;;;5004835;28;88289;-38
2022/10/26 11:40:02;;;;;;;;;;;14.80;66.60;;;;;;5005290;28;86991;-38
2022/10/26 11:42:41;;;;;;;;;;;14.80;66.60;;;;;;5005154;28;87434;-38
2022/10/26 11:45:22;;;;;;;;;;;14.80;66.60;;;;;;5005023;28;87924;-38
2022/10/26 11:47:50;;;;;;;;;;;14.80;66.60;;;;;;5005660;28;86399;-38
2022/10/26 11:50:18;;;;;;;;;;;14.80;66.70;;;;;;5005198;28;86962;-37
2022/10/26 11:52:48;;;;;;;;;;;14.90;66.70;;;;;;5004598;28;88127;-37
2022/10/26 11:55:14;;;;;;;;;;;14.90;66.80;;;;;;5007183;28;88090;-38
2022/10/26 11:57:40;;;;;;;;;;;14.90;66.60;;;;;;5004581;28;87990;-38
2022/10/26 12:00:08;;;;;;;;;;;14.90;66.70;;;;;;5004964;28;87077;-37
2022/10/26 12:02:40;;;;;;;;;;;14.90;66.70;;;;;;5004945;28;87349;-38
2022/10/26 12:05:10;;;;;;;;;;;15.00;66.80;;;;;;5004130;28;87865;-38
2022/10/26 12:07:37;;;;;;;;;;;14.90;66.70;;;;;;5004496;28;87066;-38
2022/10/26 12:10:05;;;;;;;;;;;14.90;66.70;;;;;;5004771;28;87346;-38
2022/10/26 12:12:37;;;;;;;;;;;14.90;66.60;;;;;;5004516;28;87603;-38
2022/10/26 12:15:12;;;;;;;;;;;15.00;66.70;;;;;;5004398;28;87048;-37
2022/10/26 12:17:41;;;;;;;;;;;15.00;66.70;;;;;;5007160;28;87242;-38
2022/10/26 12:20:10;;;;;;;;;;;15.00;66.70;;;;;;5003596;28;87908;-38
2022/10/26 12:22:39;;;;;;;;;;;15.00;67.30;;;;;;5003056;28;89813;-37
2022/10/26 12:25:10;;;;;;;;;;;15.00;66.70;;;;;;5004165;28;87946;-38
2022/10/26 12:27:39;;;;;;;;;;;15.10;66.70;;;;;;5004423;28;87110;-37
2022/10/26 12:30:10;;;;;;;;;;;15.10;66.70;;;;;;5004607;28;87576;-38
2022/10/26 12:32:35;;;;;;;;;;;15.10;66.70;;;;;;5004272;28;88218;-38
2022/10/26 12:35:03;;;;;;;;;;;15.10;66.70;;;;;;5003285;28;87136;-38
2022/10/26 12:37:35;;;;;;;;;;;15.10;66.70;;;;;;5004750;28;87330;-38
2022/10/26 12:40:20;;;;;;;;;;;15.10;66.60;;;;;;5006984;28;87231;-37
2022/10/26 12:42:45;;;;;;;;;;;15.20;66.70;;;;;;5004631;28;87365;-38
2022/10/26 12:45:19;;;;;;;;;;;15.10;66.60;;;;;;5003238;28;89210;-38
2022/10/26 12:47:47;;;;;;;;;;;15.10;66.60;;;;;;5004190;28;87144;-38
2022/10/26 12:50:13;;;;;;;;;;;15.10;66.50;;;;;;5004271;28;87457;-38
2022/10/26 12:53:08;;;;;;;;;;;15.20;66.60;;;;;;5003795;28;87940;-38
2022/10/26 12:55:33;;;;;;;;;;;15.20;66.60;;;;;;5002745;28;87136;-38
2022/10/26 12:58:17;;;;;;;;;;;15.20;66.50;;;;;;5003798;28;87493;-38
2022/10/26 13:00:49;;;;;;;;;;;15.20;66.60;;;;;;5003621;28;87625;-38
2022/10/26 13:03:28;;;;;;;;;;;15.20;66.50;;;;;;5007357;28;86238;-38
2022/10/26 13:06:06;;;;;;;;;;;15.30;66.60;;;;;;5003814;28;88035;-38
2022/10/26 13:08:42;;;;;;;;;;;15.30;66.60;;;;;;5003809;28;87078;-38
2022/10/26 13:11:22;;;;;;;;;;;15.30;66.50;;;;;;5003168;28;87812;-37
2022/10/26 13:13:52;;;;;;;;;;;15.30;66.40;;;;;;5003621;28;88262;-38
2022/10/26 13:16:18;;;;;;;;;;;15.30;66.50;;;;;;5003690;28;87278;-38
2022/10/26 13:18:44;;;;;;;;;;;15.30;66.30;;;;;;5003519;28;88216;-37
2022/10/26 13:21:15;;;;;;;;;;;15.30;66.40;;;;;;5003352;28;88082;-38
2022/10/26 13:23:43;;;;;;;;;;;15.30;66.50;;;;;;5003736;28;86933;-37
2022/10/26 13:26:13;;;;;;;;;;;15.40;66.40;;;;;;5006128;28;87565;-37
2022/10/26 13:28:39;;;;;;;;;;;15.30;66.40;;;;;;5003808;28;86383;-38
2022/10/26 13:31:15;;;;;;;;;;;15.30;66.40;;;;;;5003591;28;86713;-38
2022/10/26 13:33:42;;;;;;;;;;;15.40;66.40;;;;;;5003204;28;88023;-38
2022/10/26 13:36:15;;;;;;;;;;;15.40;66.40;;;;;;5003006;28;88095;-37
2022/10/26 13:38:41;;;;;;;;;;;15.40;66.40;;;;;;5003669;28;87462;-38
2022/10/26 13:41:12;;;;;;;;;;;15.40;66.30;;;;;;5003182;28;88372;-38
2022/10/26 13:43:38;;;;;;;;;;;15.40;66.10;;;;;;5003378;28;86987;-37
2022/10/26 13:46:04;;;;;;;;;;;15.40;66.30;;;;;;5003175;28;87511;-38
2022/10/26 13:48:40;;;;;;;;;;;15.50;66.30;;;;;;5004397;28;88507;-38
2022/10/26 13:51:29;;;;;;;;;;;15.50;66.30;;;;;;5003366;28;87182;-38
2022/10/26 13:54:00;;;;;;;;;;;15.50;66.30;;;;;;5003351;28;87340;-37
2022/10/26 13:56:29;;;;;;;;;;;15.50;66.30;;;;;;5002816;28;87147;-37
2022/10/26 13:58:58;;;;;;;;;;;15.50;66.20;;;;;;5003092;28;87539;-37
2022/10/26 14:01:24;;;;;;;;;;;15.50;66.10;;;;;;5002002;28;88962;-38
2022/10/26 14:03:50;;;;;;;;;;;15.50;66.20;;;;;;5003138;28;87106;-38
2022/10/26 14:06:15;;;;;;;;;;;15.50;66.20;;;;;;5003456;28;88190;-38
2022/10/26 14:08:42;;;;;;;;;;;15.50;66.10;;;;;;5005671;28;87964;-38
2022/10/26 14:11:11;;;;;;;;;;;15.60;66.10;;;;;;5002459;28;87091;-37
2022/10/26 14:13:37;;;;;;;;;;;15.60;66.10;;;;;;5002784;28;88129;-38
2022/10/26 14:16:06;;;;;;;;;;;15.60;66.10;;;;;;5002701;28;86852;-37
2022/10/26 14:18:32;;;;;;;;;;;15.60;66.10;;;;;;5003190;28;87586;-37
2022/10/26 14:21:01;;;;;;;;;;;15.60;66.00;;;;;;5002494;28;87984;-37
2022/10/26 14:23:26;;;;;;;;;;;15.60;66.00;;;;;;5002610;28;87091;-37
2022/10/26 14:25:53;;;;;;;;;;;15.60;65.90;;;;;;5002132;28;88009;-37